Ayr, North Dakota
Current Conditions -  °F | °C
As of 9:15 AM on Friday 31 Oct 2014 (Local Time) from KBAC Reporting Station
Clear Clear  
Wind Chill: 16°   Ceiling: Unl
Heat Index: 16°   Visibility: 10mi
Dew Point: 16°   Wind: 0mph
Humidity: 100%   Direction: NA
Pressure: 30.6"   Gusts: NA
Location:  47.04°N, 97.49°W
Report Text: KBAC 311415Z AUTO 00000KT 10SM CLR M09/M09 A3060 RMK AO2
Loading
Personal Weather Stations






























Interactive Weather Map
Tropical Storm Tracking
New forecast layout! Learn more

10-Day Weather Forecast

Advertisements
Track Severe Weather on mobile